createdAt,value
2023-09-08T00:01:00.320Z,18.03
2023-09-08T00:03:27.956Z,18.04
2023-09-08T00:05:55.557Z,18.08
2023-09-08T00:08:25.011Z,18.05
2023-09-08T00:10:52.644Z,17.97
2023-09-08T00:13:22.052Z,17.90
2023-09-08T00:15:49.664Z,17.90
2023-09-08T00:18:17.298Z,17.90
2023-09-08T00:20:44.912Z,17.88
2023-09-08T00:23:12.565Z,17.83
2023-09-08T00:25:40.281Z,17.72
2023-09-08T00:28:07.999Z,17.73
2023-09-08T00:30:36.978Z,17.71
2023-09-08T00:33:05.118Z,17.69
2023-09-08T00:35:32.797Z,17.72
2023-09-08T00:38:00.443Z,17.64
2023-09-08T00:40:28.907Z,17.64
2023-09-08T00:42:56.541Z,17.53
2023-09-08T00:45:25.022Z,17.54
2023-09-08T00:47:55.018Z,17.53
2023-09-08T00:50:23.035Z,17.47
2023-09-08T00:52:51.125Z,17.50
2023-09-08T00:55:19.811Z,17.47
2023-09-08T00:57:47.478Z,17.52
2023-09-08T01:00:16.149Z,17.49
2023-09-08T01:02:46.188Z,17.48
2023-09-08T01:05:15.861Z,17.53
2023-09-08T01:07:44.265Z,17.53
2023-09-08T01:10:12.662Z,17.53
2023-09-08T01:12:41.204Z,17.53
2023-09-08T01:15:09.720Z,17.54
2023-09-08T01:17:37.677Z,17.52
2023-09-08T01:20:09.266Z,17.51
2023-09-08T01:22:52.997Z,17.53
2023-09-08T01:25:24.025Z,17.48
2023-09-08T01:27:53.892Z,17.41
2023-09-08T01:30:23.771Z,17.43
2023-09-08T01:32:52.385Z,17.44
2023-09-08T01:35:20.482Z,17.42
2023-09-08T01:37:49.509Z,17.43
2023-09-08T01:40:19.820Z,17.46
2023-09-08T01:42:50.020Z,17.44
2023-09-08T01:45:17.709Z,17.41
2023-09-08T01:47:45.378Z,17.35
2023-09-08T01:50:12.985Z,17.34
2023-09-08T01:52:40.866Z,17.33
2023-09-08T01:55:09.547Z,17.33
2023-09-08T01:57:37.241Z,17.30
2023-09-08T02:00:07.719Z,17.33
2023-09-08T02:02:40.293Z,17.32
2023-09-08T02:05:09.175Z,17.30
2023-09-08T02:07:37.045Z,17.27
2023-09-08T02:10:04.958Z,17.22
2023-09-08T02:12:32.627Z,17.21
2023-09-08T02:15:01.076Z,17.16
2023-09-08T02:17:30.484Z,17.02
2023-09-08T02:19:58.184Z,16.93
2023-09-08T02:22:25.826Z,16.85
2023-09-08T02:24:53.727Z,16.72
2023-09-08T02:27:21.635Z,16.64
2023-09-08T02:29:50.850Z,16.63
2023-09-08T02:32:18.540Z,16.62
2023-09-08T02:34:49.665Z,16.63
2023-09-08T02:37:19.309Z,16.54
2023-09-08T02:39:47.026Z,16.43
2023-09-08T02:42:14.704Z,16.42
2023-09-08T02:44:42.678Z,16.49
2023-09-08T02:47:11.168Z,16.54
2023-09-08T02:49:40.348Z,16.60
2023-09-08T02:52:09.333Z,16.60
2023-09-08T02:54:37.020Z,16.60
2023-09-08T02:57:05.203Z,16.58
2023-09-08T02:59:32.889Z,16.56
2023-09-08T03:02:02.214Z,16.65
2023-09-08T03:04:29.988Z,16.59
2023-09-08T03:06:57.974Z,16.63
2023-09-08T03:09:27.003Z,16.57
2023-09-08T03:11:54.722Z,16.55
2023-09-08T03:14:22.404Z,16.52
2023-09-08T03:16:50.064Z,16.48
2023-09-08T03:19:17.748Z,16.55
2023-09-08T03:21:45.967Z,16.51
2023-09-08T03:24:13.650Z,16.43
2023-09-08T03:26:42.691Z,16.40
2023-09-08T03:29:10.317Z,16.39
2023-09-08T03:31:38.152Z,16.30
2023-09-08T03:34:06.104Z,16.21
2023-09-08T03:36:36.972Z,16.14
2023-09-08T03:39:05.455Z,16.16
2023-09-08T03:41:33.114Z,16.13
2023-09-08T03:44:02.473Z,16.14
2023-09-08T03:46:30.161Z,16.10
2023-09-08T03:49:01.814Z,16.09
2023-09-08T03:51:30.363Z,16.07
2023-09-08T03:53:58.115Z,16.08
2023-09-08T03:56:25.909Z,16.12
2023-09-08T03:58:54.127Z,16.12
2023-09-08T04:01:23.137Z,16.14
2023-09-08T04:03:50.767Z,16.07
2023-09-08T04:06:18.448Z,15.95
2023-09-08T04:08:46.299Z,15.96
2023-09-08T04:11:14.158Z,15.96
2023-09-08T04:13:41.741Z,15.99
2023-09-08T04:16:10.385Z,15.99
2023-09-08T04:18:39.561Z,15.97
2023-09-08T04:21:08.578Z,15.94
2023-09-08T04:23:36.597Z,15.98
2023-09-08T04:26:05.539Z,15.92
2023-09-08T04:28:33.474Z,15.89
2023-09-08T04:31:01.228Z,15.88
2023-09-08T04:33:30.286Z,15.85
2023-09-08T04:35:59.347Z,15.73
2023-09-08T04:38:26.937Z,15.70
2023-09-08T04:40:54.876Z,15.73
2023-09-08T04:43:22.622Z,15.63
2023-09-08T04:45:51.663Z,15.58
2023-09-08T04:48:19.558Z,15.68
2023-09-08T04:50:47.297Z,15.68
2023-09-08T04:53:16.328Z,15.70
2023-09-08T04:55:44.335Z,15.74
2023-09-08T04:58:12.129Z,15.80
2023-09-08T05:00:40.792Z,15.85
2023-09-08T05:03:09.217Z,15.90
2023-09-08T05:05:37.042Z,15.92
2023-09-08T05:08:05.245Z,16.00
2023-09-08T05:10:34.154Z,16.00
2023-09-08T05:13:02.136Z,16.08
2023-09-08T05:15:33.186Z,16.09
2023-09-08T05:18:02.722Z,16.12
2023-09-08T05:20:30.425Z,16.20
2023-09-08T05:22:58.052Z,16.29
2023-09-08T05:25:25.685Z,16.34
2023-09-08T05:27:54.968Z,16.39
2023-09-08T05:30:22.782Z,16.46
2023-09-08T05:32:50.569Z,16.52
2023-09-08T05:35:18.674Z,16.59
2023-09-08T05:37:46.847Z,16.68
2023-09-08T05:40:14.798Z,16.71
2023-09-08T05:42:44.594Z,16.74
2023-09-08T05:45:14.947Z,16.83
2023-09-08T05:47:43.227Z,16.85
2023-09-08T05:50:11.924Z,16.90
2023-09-08T05:52:39.623Z,16.95
2023-09-08T05:55:08.249Z,17.01
2023-09-08T05:57:37.956Z,17.10
2023-09-08T06:00:06.431Z,17.18
2023-09-08T06:02:42.152Z,17.28
2023-09-08T06:05:12.966Z,17.31
2023-09-08T06:07:44.070Z,17.36
2023-09-08T06:10:19.282Z,17.45
2023-09-08T06:12:47.509Z,17.46
2023-09-08T06:15:15.439Z,17.48
2023-09-08T06:17:44.974Z,17.51
2023-09-08T06:20:13.744Z,17.59
2023-09-08T06:22:41.414Z,17.64
2023-09-08T06:25:11.193Z,17.73
2023-09-08T06:27:39.641Z,17.83
2023-09-08T06:30:09.348Z,17.93
2023-09-08T06:32:37.197Z,18.00
2023-09-08T06:35:06.664Z,18.04
2023-09-08T06:37:37.386Z,18.09
2023-09-08T06:40:06.203Z,18.15
2023-09-08T06:42:35.319Z,18.22
2023-09-08T06:45:12.951Z,18.32
2023-09-08T06:47:40.584Z,18.43
2023-09-08T06:50:10.926Z,18.51
2023-09-08T06:52:38.564Z,18.59
2023-09-08T06:55:07.122Z,18.65
2023-09-08T06:57:35.045Z,18.75
2023-09-08T07:00:03.973Z,18.80
2023-09-08T07:02:31.816Z,18.91
2023-09-08T07:05:00.167Z,19.01
2023-09-08T07:07:29.333Z,19.10
2023-09-08T07:09:57.104Z,19.14
2023-09-08T07:12:24.638Z,19.19
2023-09-08T07:14:52.225Z,19.25
2023-09-08T07:17:20.109Z,19.34
2023-09-08T07:19:47.807Z,19.42
2023-09-08T07:22:15.815Z,19.52
2023-09-08T07:24:45.297Z,19.62
2023-09-08T07:27:14.899Z,19.65
2023-09-08T07:29:43.218Z,19.73
2023-09-08T07:32:10.917Z,19.79
2023-09-08T07:34:39.405Z,19.89
2023-09-08T07:37:07.017Z,20.00
2023-09-08T07:39:36.463Z,20.08
2023-09-08T07:42:06.470Z,20.18
2023-09-08T07:44:34.202Z,20.32
2023-09-08T07:47:02.436Z,20.43
2023-09-08T07:49:30.100Z,20.53
2023-09-08T07:51:57.820Z,20.65
2023-09-08T07:54:25.445Z,20.79
2023-09-08T07:56:53.137Z,20.92
2023-09-08T07:59:22.153Z,21.02
2023-09-08T08:01:50.476Z,21.09
2023-09-08T08:04:18.244Z,21.27
2023-09-08T08:06:45.890Z,21.36
2023-09-08T08:09:13.568Z,21.46
2023-09-08T08:11:41.216Z,21.57
2023-09-08T08:14:08.836Z,21.65
2023-09-08T08:16:37.833Z,21.76
2023-09-08T08:19:05.681Z,21.81
2023-09-08T08:21:33.333Z,21.87
2023-09-08T08:24:00.909Z,21.94
2023-09-08T08:26:30.923Z,21.99
2023-09-08T08:28:58.461Z,22.07
2023-09-08T08:31:26.093Z,22.13
2023-09-08T08:33:55.052Z,22.21
2023-09-08T08:36:22.774Z,22.26
2023-09-08T08:38:50.633Z,22.34
2023-09-08T08:41:18.289Z,22.47
2023-09-08T08:43:48.402Z,22.50
2023-09-08T08:46:17.009Z,22.59
2023-09-08T08:48:46.651Z,22.63
2023-09-08T08:51:17.348Z,22.70
2023-09-08T08:53:45.064Z,22.76
2023-09-08T08:56:12.633Z,22.84
2023-09-08T08:58:41.773Z,22.89
2023-09-08T09:01:09.630Z,22.95
2023-09-08T09:03:39.204Z,22.92
2023-09-08T09:06:06.924Z,22.98
2023-09-08T09:08:37.332Z,23.11
2023-09-08T09:11:05.078Z,23.14
2023-09-08T09:13:32.757Z,23.26
2023-09-08T09:16:01.352Z,23.34
2023-09-08T09:18:31.409Z,23.50
2023-09-08T09:21:03.538Z,23.59
2023-09-08T09:23:32.400Z,23.78
2023-09-08T09:26:04.741Z,23.89
2023-09-08T09:28:32.641Z,23.94
2023-09-08T09:31:00.974Z,24.00
2023-09-08T09:33:30.306Z,24.03
2023-09-08T09:35:58.479Z,24.03
2023-09-08T09:38:29.145Z,24.18
2023-09-08T09:40:57.541Z,24.22
2023-09-08T09:43:26.475Z,24.25
2023-09-08T09:45:55.695Z,24.32
2023-09-08T09:48:24.218Z,24.42
2023-09-08T09:50:51.896Z,24.52
2023-09-08T09:53:20.084Z,24.64
2023-09-08T09:55:47.881Z,24.73
2023-09-08T09:58:16.921Z,24.78
2023-09-08T10:00:49.122Z,24.76
2023-09-08T10:03:17.705Z,24.85
2023-09-08T10:05:47.980Z,25.00
2023-09-08T10:08:15.713Z,25.05
2023-09-08T10:10:47.159Z,25.19
2023-09-08T10:13:15.725Z,25.26
2023-09-08T10:15:44.251Z,25.32
2023-09-08T10:18:17.040Z,25.49
2023-09-08T10:20:46.266Z,25.62
2023-09-08T10:23:17.752Z,25.79
2023-09-08T10:25:54.127Z,25.96
2023-09-08T10:28:23.487Z,26.04
2023-09-08T10:30:52.671Z,26.16
2023-09-08T10:33:25.025Z,26.18
2023-09-08T10:35:53.602Z,26.25
2023-09-08T10:38:25.171Z,26.33
2023-09-08T10:40:53.016Z,26.26
2023-09-08T10:43:21.493Z,26.36
2023-09-08T10:45:49.690Z,26.40
2023-09-08T10:48:17.601Z,26.47
2023-09-08T10:50:46.523Z,26.58
2023-09-08T10:53:18.537Z,26.61
2023-09-08T10:56:06.310Z,26.59
2023-09-08T10:58:40.654Z,26.77
2023-09-08T11:01:08.707Z,26.84
2023-09-08T11:03:48.558Z,26.73
2023-09-08T11:06:19.804Z,26.78
2023-09-08T11:08:48.659Z,26.74
2023-09-08T11:11:18.413Z,26.78
2023-09-08T11:13:47.861Z,26.87
2023-09-08T11:16:16.922Z,26.98
2023-09-08T11:18:44.699Z,27.06
2023-09-08T11:21:12.801Z,27.09
2023-09-08T11:23:42.402Z,27.15
2023-09-08T11:26:10.892Z,27.17
2023-09-08T11:28:39.315Z,27.29
2023-09-08T11:31:07.410Z,27.34
2023-09-08T11:33:40.470Z,27.46
2023-09-08T11:36:15.420Z,27.52
2023-09-08T11:38:45.364Z,27.47
2023-09-08T11:41:13.190Z,27.55
2023-09-08T11:43:41.244Z,27.66
2023-09-08T11:46:09.216Z,27.62
2023-09-08T11:48:37.465Z,27.91
2023-09-08T11:51:05.452Z,28.09
2023-09-08T11:53:34.542Z,27.94
2023-09-08T11:56:03.665Z,27.91
2023-09-08T11:58:31.833Z,28.03
2023-09-08T12:01:00.114Z,28.14
2023-09-08T12:03:27.841Z,28.41
2023-09-08T12:05:55.922Z,28.42
2023-09-08T12:08:27.241Z,28.61
2023-09-08T12:10:55.967Z,28.66
2023-09-08T12:13:25.764Z,28.47
2023-09-08T12:15:53.882Z,28.49
2023-09-08T12:18:38.727Z,28.43
2023-09-08T12:21:06.962Z,28.40
2023-09-08T12:23:34.600Z,28.39
2023-09-08T12:26:03.228Z,28.47
2023-09-08T12:28:34.402Z,28.63
2023-09-08T12:31:02.426Z,28.65
2023-09-08T12:33:30.309Z,28.48
2023-09-08T12:35:57.956Z,28.41
2023-09-08T12:38:25.570Z,28.43
2023-09-08T12:40:53.197Z,28.34
2023-09-08T12:43:27.736Z,28.36
2023-09-08T12:45:58.052Z,28.44
2023-09-08T12:48:26.088Z,28.45
2023-09-08T12:50:53.846Z,28.43
2023-09-08T12:53:22.730Z,28.33
2023-09-08T12:55:50.676Z,28.17
2023-09-08T12:58:18.592Z,28.28
2023-09-08T13:00:46.484Z,28.30
2023-09-08T13:03:15.454Z,28.22
2023-09-08T13:05:43.277Z,28.27
2023-09-08T13:08:12.238Z,28.33
2023-09-08T13:10:40.106Z,28.39
2023-09-08T13:13:07.872Z,28.33
2023-09-08T13:15:35.619Z,28.35
2023-09-08T13:18:03.297Z,28.26
2023-09-08T13:20:32.371Z,28.28
2023-09-08T13:23:00.065Z,28.25
2023-09-08T13:25:28.039Z,28.33
2023-09-08T13:27:55.704Z,28.35
2023-09-08T13:30:27.597Z,28.37
2023-09-08T13:32:56.866Z,28.39
2023-09-08T13:35:24.689Z,28.37
2023-09-08T13:37:53.633Z,28.33
2023-09-08T13:40:21.656Z,28.36
2023-09-08T13:42:49.790Z,28.35
2023-09-08T13:45:17.429Z,28.34
2023-09-08T13:47:45.679Z,28.36
2023-09-08T13:50:14.575Z,28.33
2023-09-08T13:52:43.616Z,28.44
2023-09-08T13:55:34.737Z,28.46
2023-09-08T13:58:02.202Z,28.38
2023-09-08T14:00:32.061Z,28.38
2023-09-08T14:03:04.527Z,28.38
2023-09-08T14:05:37.004Z,28.39
2023-09-08T14:08:08.934Z,28.38
2023-09-08T14:10:51.806Z,28.45
2023-09-08T14:13:25.871Z,28.48
2023-09-08T14:15:53.540Z,28.55
2023-09-08T14:18:21.170Z,28.54
2023-09-08T14:20:48.756Z,28.61
2023-09-08T14:23:16.693Z,28.54
2023-09-08T14:25:45.675Z,28.53
2023-09-08T14:28:13.225Z,28.51
2023-09-08T14:30:41.585Z,28.52
2023-09-08T14:33:09.372Z,28.46
2023-09-08T14:35:37.116Z,28.55
2023-09-08T14:38:04.962Z,28.53
2023-09-08T14:40:32.793Z,28.44
2023-09-08T14:43:01.791Z,28.45
2023-09-08T14:45:29.427Z,28.44
2023-09-08T14:47:59.469Z,28.49
2023-09-08T14:50:28.853Z,28.46
2023-09-08T14:52:56.502Z,28.48
2023-09-08T14:55:24.173Z,28.46
2023-09-08T14:57:51.784Z,28.41
2023-09-08T15:00:21.837Z,28.37
2023-09-08T15:02:49.573Z,28.39
2023-09-08T15:05:17.326Z,28.44
2023-09-08T15:07:45.101Z,28.45
2023-09-08T15:10:13.270Z,28.37
2023-09-08T15:12:40.866Z,28.43
2023-09-08T15:15:09.774Z,28.37
2023-09-08T15:17:38.736Z,28.39
2023-09-08T15:20:07.807Z,28.36
2023-09-08T15:22:35.419Z,28.32
2023-09-08T15:25:03.162Z,28.30
2023-09-08T15:27:30.791Z,28.34
2023-09-08T15:29:58.447Z,28.27
2023-09-08T15:32:26.171Z,28.27
2023-09-08T15:34:55.258Z,28.26
2023-09-08T15:37:22.949Z,28.19
2023-09-08T15:39:50.634Z,28.27
2023-09-08T15:42:18.580Z,28.17
2023-09-08T15:44:46.164Z,28.13
2023-09-08T15:47:13.836Z,28.10
2023-09-08T15:49:41.936Z,28.12
2023-09-08T15:52:16.603Z,28.15
2023-09-08T15:54:44.783Z,28.16
2023-09-08T15:57:12.549Z,28.07
2023-09-08T15:59:40.940Z,28.05
2023-09-08T16:02:08.783Z,28.01
2023-09-08T16:04:36.724Z,27.99
2023-09-08T16:07:05.449Z,27.98
2023-09-08T16:09:34.660Z,27.95
2023-09-08T16:12:02.234Z,27.97
2023-09-08T16:14:29.990Z,27.94
2023-09-08T16:16:57.651Z,27.93
2023-09-08T16:19:25.363Z,27.96
2023-09-08T16:21:53.060Z,27.92
2023-09-08T16:24:20.662Z,27.91
2023-09-08T16:26:49.942Z,27.86
2023-09-08T16:29:17.685Z,27.85
2023-09-08T16:31:45.297Z,27.83
2023-09-08T16:34:12.967Z,27.82
2023-09-08T16:36:40.572Z,27.89
2023-09-08T16:39:08.319Z,27.84
2023-09-08T16:41:35.980Z,27.86
2023-09-08T16:44:05.178Z,27.85
2023-09-08T16:46:32.851Z,27.98
2023-09-08T16:49:00.528Z,28.05
2023-09-08T16:51:28.145Z,27.80
2023-09-08T16:53:57.326Z,27.78
2023-09-08T16:56:26.488Z,27.64
2023-09-08T16:58:54.220Z,27.53
2023-09-08T17:01:23.228Z,27.42
2023-09-08T17:03:51.081Z,27.39
2023-09-08T17:06:18.846Z,27.31
2023-09-08T17:08:46.481Z,27.26
2023-09-08T17:11:14.035Z,27.23
2023-09-08T17:13:41.607Z,27.17
2023-09-08T17:16:09.315Z,27.05
2023-09-08T17:18:38.360Z,26.97
2023-09-08T17:21:06.125Z,27.18
2023-09-08T17:23:33.786Z,27.72
2023-09-08T17:26:02.117Z,28.31
2023-09-08T17:28:29.744Z,28.24
2023-09-08T17:30:57.337Z,27.96
2023-09-08T17:33:24.907Z,27.68
2023-09-08T17:35:53.907Z,27.42
2023-09-08T17:38:21.530Z,27.16
2023-09-08T17:40:49.198Z,26.90
2023-09-08T17:43:16.801Z,26.67
2023-09-08T17:45:47.030Z,26.45
2023-09-08T17:48:14.992Z,26.28
2023-09-08T17:50:42.660Z,26.11
2023-09-08T17:53:11.678Z,25.97
2023-09-08T17:55:39.262Z,25.82
2023-09-08T17:58:06.933Z,25.70
2023-09-08T18:00:34.547Z,25.58
2023-09-08T18:03:02.259Z,25.43
2023-09-08T18:05:30.046Z,25.31
2023-09-08T18:07:57.560Z,25.19
2023-09-08T18:10:26.869Z,25.08
2023-09-08T18:12:54.525Z,24.98
2023-09-08T18:15:22.120Z,24.89
2023-09-08T18:17:49.753Z,24.81
2023-09-08T18:20:17.700Z,24.67
2023-09-08T18:22:45.287Z,24.60
2023-09-08T18:25:12.839Z,24.47
2023-09-08T18:27:41.782Z,24.39
2023-09-08T18:30:11.175Z,24.31
2023-09-08T18:32:38.887Z,24.23
2023-09-08T18:35:07.309Z,24.13
2023-09-08T18:37:34.905Z,24.07
2023-09-08T18:40:04.107Z,24.02
2023-09-08T18:42:31.720Z,23.96
2023-09-08T18:45:00.704Z,23.90
2023-09-08T18:47:28.778Z,23.83
2023-09-08T18:49:56.394Z,23.79
2023-09-08T18:52:23.965Z,23.73
2023-09-08T18:54:51.630Z,23.66
2023-09-08T18:57:19.238Z,23.62
2023-09-08T18:59:46.794Z,23.57
2023-09-08T19:02:15.780Z,23.55
2023-09-08T19:04:43.539Z,23.50
2023-09-08T19:07:11.182Z,23.44
2023-09-08T19:09:39.012Z,23.38
2023-09-08T19:12:07.042Z,23.32
2023-09-08T19:14:34.658Z,23.29
2023-09-08T19:17:03.745Z,23.24
2023-09-08T19:19:32.794Z,23.19
2023-09-08T19:22:00.387Z,23.13
2023-09-08T19:24:28.051Z,23.09
2023-09-08T19:26:55.687Z,23.01
2023-09-08T19:29:24.438Z,22.97
2023-09-08T19:31:52.093Z,22.92
2023-09-08T19:34:19.695Z,22.87
2023-09-08T19:36:48.629Z,22.80
2023-09-08T19:39:16.293Z,22.72
2023-09-08T19:41:43.914Z,22.64
2023-09-08T19:44:11.517Z,22.57
2023-09-08T19:46:39.121Z,22.47
2023-09-08T19:49:06.882Z,22.37
2023-09-08T19:51:34.539Z,22.32
2023-09-08T19:54:03.838Z,22.26
2023-09-08T19:56:31.444Z,22.22
2023-09-08T19:59:01.080Z,22.16
2023-09-08T20:01:30.534Z,22.09
2023-09-08T20:03:58.217Z,22.04
2023-09-08T20:06:25.891Z,22.00
2023-09-08T20:08:53.536Z,21.95
2023-09-08T20:11:22.519Z,21.90
2023-09-08T20:13:50.188Z,21.84
2023-09-08T20:16:17.817Z,21.76
2023-09-08T20:18:45.520Z,21.68
2023-09-08T20:21:13.166Z,21.61
2023-09-08T20:23:41.089Z,21.54
2023-09-08T20:26:09.738Z,21.44
2023-09-08T20:28:38.754Z,21.37
2023-09-08T20:31:16.194Z,21.31
2023-09-08T20:33:45.806Z,21.25
2023-09-08T20:36:13.526Z,21.19
2023-09-08T20:38:41.604Z,21.14
2023-09-08T20:41:11.398Z,21.10
2023-09-08T20:43:40.564Z,21.08
2023-09-08T20:46:08.446Z,21.04
2023-09-08T20:48:38.734Z,21.02
2023-09-08T20:51:09.099Z,20.97
2023-09-08T20:53:38.839Z,20.96
2023-09-08T20:56:08.357Z,20.93
2023-09-08T20:58:36.031Z,20.90
2023-09-08T21:01:05.532Z,20.87
2023-09-08T21:03:33.473Z,20.86
2023-09-08T21:06:01.245Z,20.86
2023-09-08T21:08:31.444Z,20.86
2023-09-08T21:10:59.567Z,20.84
2023-09-08T21:13:27.146Z,20.83
2023-09-08T21:15:54.787Z,20.79
2023-09-08T21:18:23.782Z,20.75
2023-09-08T21:20:51.446Z,20.68
2023-09-08T21:23:19.393Z,20.59
2023-09-08T21:25:46.960Z,20.50
2023-09-08T21:28:14.567Z,20.46
2023-09-08T21:30:42.174Z,20.41
2023-09-08T21:33:10.301Z,20.39
2023-09-08T21:35:39.998Z,20.35
2023-09-08T21:38:07.614Z,20.34
2023-09-08T21:40:35.191Z,20.28
2023-09-08T21:43:03.829Z,20.23
2023-09-08T21:45:31.475Z,20.20
2023-09-08T21:47:59.184Z,20.13
2023-09-08T21:50:26.811Z,20.08
2023-09-08T21:52:55.844Z,20.05
2023-09-08T21:55:23.451Z,20.07
2023-09-08T21:57:51.014Z,19.97
2023-09-08T22:00:21.997Z,19.89
2023-09-08T22:02:50.281Z,19.82
2023-09-08T22:05:18.238Z,19.75
2023-09-08T22:07:45.919Z,19.67
2023-09-08T22:10:14.990Z,19.64
2023-09-08T22:12:42.817Z,19.67
2023-09-08T22:15:11.205Z,19.58
2023-09-08T22:17:38.888Z,19.54
2023-09-08T22:20:13.909Z,19.56
2023-09-08T22:22:41.786Z,19.49
2023-09-08T22:25:11.637Z,19.47
2023-09-08T22:27:40.704Z,19.44
2023-09-08T22:30:09.419Z,19.40
2023-09-08T22:32:38.298Z,19.35
2023-09-08T22:35:06.840Z,19.31
2023-09-08T22:37:36.581Z,19.25
2023-09-08T22:40:07.321Z,19.18
2023-09-08T22:42:34.966Z,19.24
2023-09-08T22:45:05.989Z,19.15
2023-09-08T22:47:33.715Z,19.16
2023-09-08T22:50:05.086Z,19.13
2023-09-08T22:52:32.675Z,19.08
2023-09-08T22:55:12.735Z,19.08
2023-09-08T22:57:49.137Z,19.08
2023-09-08T23:00:20.045Z,19.08
2023-09-08T23:02:48.228Z,19.06
2023-09-08T23:05:16.310Z,19.06
2023-09-08T23:07:44.366Z,19.07
2023-09-08T23:10:12.332Z,18.98
2023-09-08T23:12:40.278Z,18.95
2023-09-08T23:15:10.077Z,18.94
2023-09-08T23:17:39.445Z,18.98
2023-09-08T23:20:09.021Z,18.92
2023-09-08T23:22:37.493Z,18.84
2023-09-08T23:25:06.812Z,18.84
2023-09-08T23:27:34.517Z,18.83
2023-09-08T23:30:02.962Z,18.72
2023-09-08T23:32:30.670Z,18.71
2023-09-08T23:35:00.725Z,18.66
2023-09-08T23:37:28.488Z,18.64
2023-09-08T23:39:56.127Z,18.58
2023-09-08T23:42:23.714Z,18.52
2023-09-08T23:44:51.333Z,18.50
2023-09-08T23:47:19.045Z,18.49
2023-09-08T23:49:46.634Z,18.46
2023-09-08T23:52:15.543Z,18.49
2023-09-08T23:54:43.191Z,18.43
2023-09-08T23:57:10.900Z,18.42
2023-09-08T23:59:38.691Z,18.39
